Air Navigation Services of Czech Republic
Airport: LKKV Updated:  22.05.2019 03:00:29  UTC
 METAR LKKV 22.05. 03:00 ...
METAR LKKV 220300Z 28013KT 9999 SCT008 OVC013 11/10 Q1011 RMK REG QNH 1002=
 TAF LKKV 21.05. 23:00 ...
TAF LKKV 212300Z 2200/2306 24004KT 9999 SCT030      BECMG 2209/2210 30010KT      PROB30 TEMPO 2210/2217 5000 -SHRA BKN010 SCT020TCU      BECMG 2218/2221 CAVOK=